Grazzanise, Italy

3:00 AM CEST on August 30, 2016 (GMT +0200)
Starzetella | | Change Station

Elev 18 ft 41.11 °N, 13.91 °E | Updated 3 seconds ago

Clear
Clear
71.2 °F
Feels Like 71 °F
N
0.7
Wind Variable Wind from West
Gusts 3.1 mph

Today
High -- | Low -- °F
--% Chance of Precip.
Yesterday
High -- | Low -- °F
Precip. -- in
Pressure 30.01 in
Visibility -9999.0 miles
Clouds
Heat Index 71 °F
Dew Point 66 °F
Humidity 83%
Rainfall 0.00 in
Snow Depth Not available.
6:28 AM 7:39 PM
Waning Crescent, 6% visible
METAR LIRN 300050Z 05002KT CAVOK 22/18 Q1016 NOSIG
Pressure 30.01 in
Visibility -9999.0 miles
Clouds
Heat Index 71 °F
Dew Point 66 °F
Humidity 83%
Rainfall 0.00 in
Snow Depth Not available.
6:28 AM 7:39 PM
Waning Crescent, 6% visible
METAR LIRN 300050Z 05002KT CAVOK 22/18 Q1016 NOSIG

10-Day Weather Forecast

×

Almanac

Astronomy

Aug. 30, 2016 Rise Set
Actual Time
Civil Twilight
Nautical Twilight
Astronomical Twilight
Moon
Length of Visible Light
Length of Day
Tomorrow will be .
, % of the Moon is Illuminated

Today's Extremes

Country Highs Country Lows

Community

WunderPhotos

Upload Photos

1,935,707 photos uploaded!

WunderBlog® & News

Nearby

Air Quality

  Air Quality AQ Index Pollutant
Not available.

Snow Depth

Station Depth Elevation

Earthquake Activity

City Distance Mag. Time & Date
Minimum magnitude displayed is 2.5.

Coastal Water Temperatures

Place Temperature

Stations

Nearby Weather Stations

Station Location Temp. Windchill Dew Point Humidity Wind Precip. Elev Updated Type